createdAt,value
2023-03-22T00:00:30.596Z,70.32
2023-03-22T00:02:58.016Z,68.57
2023-03-22T00:05:25.367Z,68.88
2023-03-22T00:07:58.141Z,69.25
2023-03-22T00:10:25.942Z,69.40
2023-03-22T00:12:52.897Z,68.80
2023-03-22T00:15:19.928Z,72.05
2023-03-22T00:17:46.642Z,69.47
2023-03-22T00:20:13.529Z,70.88
2023-03-22T00:22:40.496Z,71.88
2023-03-22T00:25:07.535Z,72.28
2023-03-22T00:27:34.336Z,75.88
2023-03-22T00:30:01.061Z,71.93
2023-03-22T00:32:27.856Z,71.75
2023-03-22T00:34:55.096Z,72.03
2023-03-22T00:37:21.923Z,74.43
2023-03-22T00:39:48.640Z,72.85
2023-03-22T00:42:15.508Z,71.70
2023-03-22T00:44:42.200Z,72.50
2023-03-22T00:47:08.950Z,72.78
2023-03-22T00:49:37.445Z,73.10
2023-03-22T00:52:04.320Z,75.13
2023-03-22T00:54:31.114Z,74.35
2023-03-22T00:56:57.856Z,72.88
2023-03-22T00:59:24.565Z,74.00
2023-03-22T01:01:51.675Z,71.68
2023-03-22T01:04:26.011Z,74.70
2023-03-22T01:06:59.412Z,71.68
2023-03-22T01:09:28.929Z,75.82
2023-03-22T01:11:58.849Z,75.32
2023-03-22T01:14:25.970Z,77.57
2023-03-22T01:16:54.964Z,78.60
2023-03-22T01:19:21.747Z,74.32
2023-03-22T01:21:48.466Z,72.97
2023-03-22T01:24:15.693Z,74.28
2023-03-22T01:26:43.195Z,76.18
2023-03-22T01:29:10.482Z,77.72
2023-03-22T01:31:37.422Z,76.07
2023-03-22T01:34:04.299Z,74.10
2023-03-22T01:36:31.614Z,74.47
2023-03-22T01:38:59.320Z,71.03
2023-03-22T01:41:26.175Z,76.38
2023-03-22T01:44:09.589Z,73.35
2023-03-22T01:46:36.817Z,72.65
2023-03-22T01:49:04.890Z,71.45
2023-03-22T01:51:32.018Z,70.35
2023-03-22T01:54:25.673Z,67.68
2023-03-22T01:56:53.224Z,67.88
2023-03-22T01:59:30.856Z,69.20
2023-03-22T02:02:19.308Z,67.50
2023-03-22T02:04:57.937Z,68.13
2023-03-22T02:07:27.779Z,71.68
2023-03-22T02:09:56.581Z,73.07
2023-03-22T02:12:26.650Z,74.78
2023-03-22T02:15:07.335Z,76.53
2023-03-22T02:17:59.805Z,75.22
2023-03-22T02:20:33.045Z,70.47
2023-03-22T02:22:59.972Z,74.03
2023-03-22T02:25:42.062Z,73.20
2023-03-22T02:28:27.305Z,70.57
2023-03-22T02:30:57.307Z,70.70
2023-03-22T02:33:23.910Z,70.63
2023-03-22T02:36:11.228Z,68.60
2023-03-22T02:38:57.816Z,74.03
2023-03-22T02:41:48.016Z,73.45
2023-03-22T02:44:27.335Z,75.35
2023-03-22T02:47:02.388Z,76.43
2023-03-22T02:49:49.449Z,72.50
2023-03-22T02:52:21.675Z,73.65
2023-03-22T02:54:58.126Z,73.35
2023-03-22T02:57:30.780Z,74.60
2023-03-22T02:59:59.105Z,74.47
2023-03-22T03:02:26.739Z,74.03
2023-03-22T03:04:54.165Z,76.50
2023-03-22T03:07:26.949Z,73.00
2023-03-22T03:09:53.771Z,72.18
2023-03-22T03:12:23.428Z,73.18
2023-03-22T03:14:53.132Z,70.50
2023-03-22T03:17:29.090Z,70.35
2023-03-22T03:19:55.906Z,69.95
2023-03-22T03:22:50.438Z,69.93
2023-03-22T03:25:21.743Z,71.57
2023-03-22T03:27:57.525Z,72.03
2023-03-22T03:30:28.327Z,70.28
2023-03-22T03:32:59.196Z,70.25
2023-03-22T03:35:31.010Z,73.45
2023-03-22T03:38:07.906Z,72.10
2023-03-22T03:40:36.633Z,69.93
2023-03-22T03:43:06.264Z,70.95
2023-03-22T03:45:34.457Z,75.18
2023-03-22T03:48:02.502Z,73.35
2023-03-22T03:50:29.930Z,72.82
2023-03-22T03:52:57.578Z,75.35
2023-03-22T03:55:24.725Z,77.07
2023-03-22T03:57:51.516Z,83.03
2023-03-22T04:00:18.930Z,82.05
2023-03-22T04:03:14.891Z,81.57
2023-03-22T04:06:14.266Z,82.15
2023-03-22T04:08:46.120Z,82.45
2023-03-22T04:11:15.693Z,84.00
2023-03-22T04:13:43.543Z,84.40
2023-03-22T04:16:15.485Z,81.63
2023-03-22T04:18:42.516Z,79.20
2023-03-22T04:21:11.807Z,83.88
2023-03-22T04:23:46.812Z,83.32
2023-03-22T04:26:13.683Z,87.00
2023-03-22T04:28:53.005Z,83.82
2023-03-22T04:31:19.964Z,88.15
2023-03-22T04:33:55.336Z,86.43
2023-03-22T04:36:42.343Z,88.68
2023-03-22T04:39:32.266Z,89.43
2023-03-22T04:42:26.713Z,88.80
2023-03-22T04:45:10.597Z,89.28
2023-03-22T04:47:37.496Z,85.28
2023-03-22T04:50:07.982Z,84.80
2023-03-22T04:52:41.964Z,86.88
2023-03-22T04:55:08.928Z,84.95
2023-03-22T04:57:36.238Z,84.63
2023-03-22T05:00:08.514Z,86.65
2023-03-22T05:02:41.100Z,85.20
2023-03-22T05:05:16.740Z,83.07
2023-03-22T05:07:45.704Z,79.18
2023-03-22T05:10:12.455Z,82.05
2023-03-22T05:12:40.806Z,84.68
2023-03-22T05:15:32.649Z,79.82
2023-03-22T05:18:01.210Z,75.05
2023-03-22T05:20:28.311Z,73.28
2023-03-22T05:23:11.566Z,72.40
2023-03-22T05:25:40.340Z,76.65
2023-03-22T05:28:07.131Z,66.80
2023-03-22T05:30:57.433Z,65.30
2023-03-22T05:33:34.788Z,64.35
2023-03-22T05:36:02.675Z,65.97
2023-03-22T05:38:33.551Z,67.50
2023-03-22T05:41:02.946Z,68.25
2023-03-22T05:43:32.839Z,62.55
2023-03-22T05:45:59.643Z,61.42
2023-03-22T05:48:36.367Z,65.90
2023-03-22T05:51:13.339Z,66.68
2023-03-22T05:53:41.196Z,80.07
2023-03-22T05:56:15.376Z,73.18
2023-03-22T05:58:44.979Z,75.47
2023-03-22T06:01:20.561Z,68.03
2023-03-22T06:03:48.570Z,71.28
2023-03-22T06:06:41.960Z,66.50
2023-03-22T06:09:17.597Z,63.25
2023-03-22T06:11:48.957Z,57.70
2023-03-22T06:14:16.952Z,60.20
2023-03-22T06:17:04.446Z,59.65
2023-03-22T06:19:31.977Z,57.50
2023-03-22T06:22:02.073Z,57.25
2023-03-22T06:24:28.967Z,45.25
2023-03-22T06:26:55.690Z,43.75
2023-03-22T06:29:22.469Z,47.90
2023-03-22T06:31:51.980Z,48.22
2023-03-22T06:34:18.795Z,47.22
2023-03-22T06:36:47.140Z,47.63
2023-03-22T06:39:23.108Z,50.22
2023-03-22T06:41:50.552Z,56.50
2023-03-22T06:44:17.849Z,59.47
2023-03-22T06:46:50.448Z,55.35
2023-03-22T06:49:35.914Z,55.22
2023-03-22T06:52:03.868Z,55.38
2023-03-22T06:54:34.432Z,55.15
2023-03-22T06:57:01.489Z,55.20
2023-03-22T06:59:28.600Z,55.35
2023-03-22T07:01:56.349Z,55.97
2023-03-22T07:04:24.298Z,53.92
2023-03-22T07:06:51.477Z,51.33
2023-03-22T07:09:18.462Z,49.10
2023-03-22T07:11:48.004Z,50.10
2023-03-22T07:14:15.732Z,49.10
2023-03-22T07:16:56.780Z,48.70
2023-03-22T07:19:24.412Z,47.80
2023-03-22T07:21:51.541Z,49.33
2023-03-22T07:24:18.462Z,45.25
2023-03-22T07:26:46.582Z,43.08
2023-03-22T07:29:18.254Z,41.27
2023-03-22T07:31:45.848Z,42.65
2023-03-22T07:34:22.200Z,42.47
2023-03-22T07:37:09.302Z,43.97
2023-03-22T07:39:36.594Z,42.72
2023-03-22T07:42:03.754Z,46.80
2023-03-22T07:44:59.409Z,44.95
2023-03-22T07:47:40.096Z,46.17
2023-03-22T07:50:45.958Z,49.05
2023-03-22T07:53:13.250Z,48.25
2023-03-22T07:55:42.228Z,51.10
2023-03-22T07:58:09.424Z,52.03
2023-03-22T08:00:36.195Z,54.15
2023-03-22T08:03:23.307Z,55.25
2023-03-22T08:06:04.332Z,57.80
2023-03-22T08:08:31.596Z,59.10
2023-03-22T08:11:01.021Z,57.05
2023-03-22T08:13:28.041Z,60.35
2023-03-22T08:15:55.013Z,59.90
2023-03-22T08:18:22.294Z,60.33
2023-03-22T08:20:56.443Z,59.08
2023-03-22T08:23:38.548Z,60.38
2023-03-22T08:26:28.422Z,56.92
2023-03-22T08:28:58.456Z,57.55
2023-03-22T08:31:25.282Z,56.90
2023-03-22T08:33:52.398Z,58.63
2023-03-22T08:36:20.526Z,56.63
2023-03-22T08:38:56.177Z,58.53
2023-03-22T08:41:33.526Z,57.97
2023-03-22T08:44:00.765Z,55.90
2023-03-22T08:46:28.249Z,54.75
2023-03-22T08:48:58.859Z,55.35
2023-03-22T08:51:31.615Z,54.97
2023-03-22T08:54:33.521Z,56.83
2023-03-22T08:57:00.798Z,60.00
2023-03-22T08:59:54.583Z,57.13
2023-03-22T09:02:27.160Z,58.20
2023-03-22T09:04:55.411Z,58.13
2023-03-22T09:07:22.490Z,60.08
2023-03-22T09:09:58.802Z,57.83
2023-03-22T09:12:26.378Z,60.42
2023-03-22T09:14:55.840Z,59.60
2023-03-22T09:17:26.315Z,58.80
2023-03-22T09:20:05.887Z,58.08
2023-03-22T09:22:38.437Z,59.13
2023-03-22T09:25:06.170Z,58.72
2023-03-22T09:27:33.652Z,56.70
2023-03-22T09:30:00.791Z,60.72
2023-03-22T09:32:27.538Z,59.72
2023-03-22T09:34:59.579Z,57.83
2023-03-22T09:37:34.385Z,63.30
2023-03-22T09:40:01.436Z,62.38
2023-03-22T09:42:40.904Z,62.42
2023-03-22T09:45:19.550Z,62.17
2023-03-22T09:47:49.275Z,60.45
2023-03-22T09:50:20.677Z,57.80
2023-03-22T09:52:47.758Z,57.03
2023-03-22T09:55:23.675Z,57.60
2023-03-22T09:57:58.575Z,58.65
2023-03-22T10:00:41.781Z,56.25
2023-03-22T10:03:09.820Z,58.67
2023-03-22T10:05:52.503Z,58.13
2023-03-22T10:08:28.616Z,55.22
2023-03-22T10:10:57.336Z,61.63
2023-03-22T10:13:28.856Z,55.25
2023-03-22T10:15:59.084Z,55.35
2023-03-22T10:18:41.067Z,57.42
2023-03-22T10:21:09.335Z,60.25
2023-03-22T10:23:47.765Z,58.83
2023-03-22T10:26:23.560Z,60.65
2023-03-22T10:28:57.386Z,62.75
2023-03-22T10:31:26.564Z,62.45
2023-03-22T10:34:01.910Z,59.78
2023-03-22T10:36:34.869Z,56.58
2023-03-22T10:39:14.488Z,55.33
2023-03-22T10:41:41.590Z,56.08
2023-03-22T10:44:10.235Z,61.00
2023-03-22T10:46:40.808Z,60.10
2023-03-22T10:49:07.976Z,59.22
2023-03-22T10:51:40.834Z,57.03
2023-03-22T10:54:12.476Z,57.45
2023-03-22T10:56:39.625Z,55.17
2023-03-22T10:59:06.480Z,54.33
2023-03-22T11:01:36.829Z,52.80
2023-03-22T11:04:03.834Z,50.50
2023-03-22T11:06:35.335Z,51.90
2023-03-22T11:09:11.609Z,50.42
2023-03-22T11:11:47.213Z,49.15
2023-03-22T11:14:16.273Z,43.80
2023-03-22T11:16:45.850Z,43.28
2023-03-22T11:19:18.832Z,43.38
2023-03-22T11:21:45.865Z,38.95
2023-03-22T11:24:13.933Z,44.63
2023-03-22T11:26:41.864Z,41.33
2023-03-22T11:29:18.790Z,42.95
2023-03-22T11:31:55.820Z,45.20
2023-03-22T11:34:24.367Z,47.17
2023-03-22T11:36:57.366Z,47.72
2023-03-22T11:39:26.528Z,48.65
2023-03-22T11:41:54.330Z,46.90
2023-03-22T11:44:22.191Z,46.13
2023-03-22T11:46:57.915Z,47.78
2023-03-22T11:49:27.116Z,47.42
2023-03-22T11:51:55.691Z,46.70
2023-03-22T11:54:30.686Z,43.28
2023-03-22T11:56:58.781Z,38.50
2023-03-22T11:59:27.337Z,36.50
2023-03-22T12:02:06.784Z,35.40
2023-03-22T12:04:36.291Z,38.13
2023-03-22T12:07:04.204Z,39.25
2023-03-22T12:09:40.110Z,40.20
2023-03-22T12:12:10.054Z,39.63
2023-03-22T12:14:52.585Z,38.55
2023-03-22T12:17:22.717Z,37.38
2023-03-22T12:20:03.938Z,35.65
2023-03-22T12:22:52.752Z,35.95
2023-03-22T12:25:22.671Z,36.30
2023-03-22T12:28:00.977Z,29.60
2023-03-22T12:30:37.604Z,30.73
2023-03-22T12:33:09.588Z,31.88
2023-03-22T12:35:37.490Z,36.40
2023-03-22T12:38:17.849Z,45.92
2023-03-22T12:40:44.759Z,41.13
2023-03-22T12:43:17.708Z,43.05
2023-03-22T12:45:49.214Z,39.45
2023-03-22T12:48:19.447Z,40.20
2023-03-22T12:50:49.276Z,33.38
2023-03-22T12:53:18.685Z,32.88
2023-03-22T12:55:46.673Z,26.88
2023-03-22T12:58:16.292Z,28.00
2023-03-22T13:00:49.426Z,27.45
2023-03-22T13:03:20.298Z,27.70
2023-03-22T13:05:48.818Z,29.92
2023-03-22T13:08:24.341Z,29.52
2023-03-22T13:11:03.260Z,30.10
2023-03-22T13:13:30.292Z,23.23
2023-03-22T13:15:57.096Z,28.77
2023-03-22T13:18:32.697Z,31.10
2023-03-22T13:21:11.571Z,30.88
2023-03-22T13:23:52.853Z,33.28
2023-03-22T13:26:19.931Z,33.80
2023-03-22T13:29:00.141Z,33.25
2023-03-22T13:31:47.399Z,34.58
2023-03-22T13:34:31.457Z,33.88
2023-03-22T13:36:59.004Z,34.47
2023-03-22T13:39:31.450Z,34.95
2023-03-22T13:42:29.490Z,33.65
2023-03-22T13:45:02.649Z,35.17
2023-03-22T13:47:37.423Z,33.92
2023-03-22T13:50:12.504Z,33.10
2023-03-22T13:52:44.067Z,33.25
2023-03-22T13:55:37.366Z,34.28
2023-03-22T13:58:06.013Z,34.05
2023-03-22T14:00:35.223Z,36.00
2023-03-22T14:03:05.014Z,33.55
2023-03-22T14:05:35.232Z,31.33
2023-03-22T14:08:02.890Z,31.55
2023-03-22T14:10:49.182Z,30.95
2023-03-22T14:13:34.684Z,29.70
2023-03-22T14:16:08.576Z,29.75
2023-03-22T14:18:37.136Z,31.10
2023-03-22T14:21:06.829Z,31.13
